Time;durP1;ratioP1;P1;durP2;ratioP2;P2;SDS_P1;SDS_P2;PMS_P1;PMS_P2;Temp;Humidity;BMP_temperature;BMP_pressure;BME280_temperature;BME280_humidity;BME280_pressure;Samples;Min_cycle;Max_cycle;Signal;HPM_P1;HPM_P2
2023/01/09 00:00:55;;;;;;;0.20;0.10;;;15.10;99.90;;;;;;21160309;28;20549;-70
2023/01/09 00:11:01;;;;;;;0.20;0.10;;;14.80;99.90;;;;;;21158262;28;20735;-70
2023/01/09 00:21:08;;;;;;;0.20;0.10;;;14.70;99.90;;;;;;21113352;28;20404;-70
2023/01/09 00:31:14;;;;;;;0.20;0.10;;;14.40;99.90;;;;;;21073016;28;20408;-70
2023/01/09 00:41:23;;;;;;;0.20;0.10;;;14.10;99.90;;;;;;21072905;28;20404;-70
2023/01/09 00:51:28;;;;;;;0.20;0.10;;;14.50;99.90;;;;;;21071832;28;20403;-70
2023/01/09 01:01:32;;;;;;;0.20;0.10;;;14.70;99.90;;;;;;21069445;28;20729;-70
2023/01/09 01:11:38;;;;;;;0.20;0.10;;;14.80;99.90;;;;;;21070670;28;20405;-70
2023/01/09 01:21:41;;;;;;;0.20;0.00;;;14.70;99.90;;;;;;21069325;28;20400;-69
2023/01/09 01:31:47;;;;;;;0.20;0.08;;;14.50;99.90;;;;;;21034205;28;20446;-69
2023/01/09 01:41:51;;;;;;;0.20;0.10;;;14.20;99.90;;;;;;21049859;28;20400;-69
2023/01/09 01:51:56;;;;;;;0.20;0.10;;;13.60;99.90;;;;;;21109097;28;20409;-70
2023/01/09 02:02:02;;;;;;;0.20;0.10;;;13.60;99.90;;;;;;21150808;28;20418;-70
2023/01/09 02:12:26;;;;;;;0.20;0.00;;;13.30;99.90;;;;;;21149756;28;20413;-70
2023/01/09 02:22:36;;;;;;;0.20;0.10;;;12.40;99.90;;;;;;21149035;28;20442;-70
2023/01/09 02:32:58;;;;;;;0.20;0.10;;;13.60;99.90;;;;;;21130356;28;20494;-69
2023/01/09 02:43:03;;;;;;;0.20;0.10;;;14.80;99.90;;;;;;21147779;28;20398;-71
2023/01/09 02:53:32;;;;;;;0.20;0.10;;;14.80;99.90;;;;;;21112860;28;20391;-70
2023/01/09 03:03:45;;;;;;;0.20;0.10;;;14.60;99.90;;;;;;21147177;28;20464;-70
2023/01/09 03:13:53;;;;;;;0.20;0.10;;;13.80;99.90;;;;;;21128137;28;20460;-69
2023/01/09 03:23:59;;;;;;;0.20;0.10;;;13.20;99.90;;;;;;21143230;28;20406;-70
2023/01/09 03:34:04;;;;;;;0.20;0.10;;;12.40;99.90;;;;;;21111540;28;20390;-69
2023/01/09 03:44:08;;;;;;;0.20;0.10;;;12.30;99.90;;;;;;21161827;28;20394;-69
2023/01/09 03:54:13;;;;;;;0.20;0.10;;;12.60;99.90;;;;;;21142948;28;20394;-70
2023/01/09 04:04:17;;;;;;;0.20;0.10;;;14.00;99.90;;;;;;21159090;28;20410;-69
2023/01/09 04:14:22;;;;;;;0.20;0.10;;;14.00;99.90;;;;;;21141996;28;20394;-70
2023/01/09 04:24:27;;;;;;;0.20;0.10;;;13.80;99.90;;;;;;21140363;28;20463;-70
2023/01/09 04:34:32;;;;;;;0.20;0.10;;;13.50;99.90;;;;;;21139061;28;20813;-69
2023/01/09 04:44:36;;;;;;;0.20;0.10;;;13.50;99.90;;;;;;21138542;28;20468;-69
2023/01/09 04:54:41;;;;;;;0.20;0.00;;;13.60;99.90;;;;;;21156051;28;20468;-71
2023/01/09 05:04:45;;;;;;;0.20;0.10;;;13.30;99.90;;;;;;21137175;28;20398;-71
2023/01/09 05:14:51;;;;;;;0.20;0.10;;;12.80;99.90;;;;;;21153474;28;20409;-71
2023/01/09 05:24:55;;;;;;;0.20;0.10;;;12.80;99.90;;;;;;21116133;28;20819;-71
2023/01/09 05:35:00;;;;;;;0.20;0.10;;;12.50;99.90;;;;;;21152709;28;20394;-71
2023/01/09 05:45:05;;;;;;;0.20;0.10;;;12.00;99.90;;;;;;21132327;28;20468;-71
2023/01/09 05:55:12;;;;;;;0.20;0.10;;;11.60;99.90;;;;;;21132116;28;20390;-70
2023/01/09 06:05:16;;;;;;;0.20;0.10;;;11.60;99.90;;;;;;21131544;28;20505;-72
2023/01/09 06:15:21;;;;;;;0.20;0.00;;;11.90;99.90;;;;;;21130671;28;20895;-71
2023/01/09 06:25:25;;;;;;;0.20;0.05;;;12.40;99.90;;;;;;21147699;28;20481;-71
2023/01/09 06:35:48;;;;;;;0.20;0.10;;;12.20;99.90;;;;;;21146747;28;20750;-72
2023/01/09 06:45:52;;;;;;;0.20;0.00;;;12.50;99.90;;;;;;21145248;28;20410;-71
2023/01/09 06:55:57;;;;;;;0.20;0.10;;;12.70;99.90;;;;;;21138024;28;20403;-71
2023/01/09 07:06:01;;;;;;;0.20;0.10;;;12.80;99.90;;;;;;21133638;28;20829;-71
2023/01/09 07:16:07;;;;;;;0.20;0.10;;;12.30;99.90;;;;;;21128620;28;20493;-71
2023/01/09 07:26:11;;;;;;;0.20;0.10;;;12.20;99.90;;;;;;21105599;28;20468;-69
2023/01/09 07:36:16;;;;;;;0.20;0.10;;;12.20;99.90;;;;;;21143312;28;20398;-67
2023/01/09 07:46:21;;;;;;;0.20;0.10;;;11.80;99.90;;;;;;21093929;28;20412;-71
2023/01/09 07:56:26;;;;;;;0.20;0.10;;;12.20;99.90;;;;;;21084254;28;20400;-70
2023/01/09 08:06:30;;;;;;;0.20;0.10;;;12.70;99.90;;;;;;21065840;28;20748;-67
2023/01/09 08:16:35;;;;;;;0.20;0.10;;;13.40;99.90;;;;;;21069892;28;20400;-67
2023/01/09 08:26:39;;;;;;;0.20;0.10;;;13.60;99.90;;;;;;21071467;28;20418;-68
2023/01/09 08:36:44;;;;;;;0.20;0.10;;;13.70;99.90;;;;;;21070338;28;20405;-69
2023/01/09 08:47:07;;;;;;;0.20;0.10;;;13.60;99.90;;;;;;21086198;28;20402;-69
2023/01/09 08:57:12;;;;;;;0.20;0.10;;;13.60;99.90;;;;;;21133762;28;20942;-69
2023/01/09 09:07:16;;;;;;;0.20;0.10;;;13.70;99.90;;;;;;21152961;28;20877;-69
2023/01/09 09:17:21;;;;;;;0.20;0.10;;;13.50;99.90;;;;;;21132880;28;20830;-69
2023/01/09 09:27:25;;;;;;;0.20;0.10;;;13.60;99.90;;;;;;21129723;28;20407;-69
2023/01/09 09:37:30;;;;;;;0.20;0.10;;;13.80;99.90;;;;;;21106964;28;20397;-70
2023/01/09 09:47:44;;;;;;;0.20;0.10;;;13.90;99.90;;;;;;21064634;28;21051;-69
2023/01/09 10:08:41;;;;;;;0.20;0.10;;;14.40;99.90;;;;;;21146700;28;20857;-69
2023/01/09 10:18:59;;;;;;;0.20;0.10;;;14.40;99.90;;;;;;21127351;28;20703;-70
2023/01/09 10:29:42;;;;;;;0.20;0.10;;;14.70;99.90;;;;;;21059513;28;20759;-70
2023/01/09 10:39:52;;;;;;;0.20;0.10;;;15.30;99.90;;;;;;21057249;28;20439;-70
2023/01/09 10:49:57;;;;;;;0.20;0.10;;;15.60;99.90;;;;;;21124788;28;20754;-70
2023/01/09 11:00:04;;;;;;;0.20;0.10;;;16.50;99.90;;;;;;21126153;28;20399;-70
2023/01/09 11:10:10;;;;;;;0.20;0.10;;;16.60;99.90;;;;;;21115435;28;20812;-71
2023/01/09 11:20:17;;;;;;;0.20;0.10;;;16.50;99.90;;;;;;21122151;28;20391;-72
2023/01/09 11:30:26;;;;;;;0.20;0.10;;;17.00;99.90;;;;;;21064075;28;20461;-71
2023/01/09 11:40:37;;;;;;;0.20;0.10;;;17.70;99.90;;;;;;21066578;28;20483;-72
2023/01/09 11:50:52;;;;;;;0.20;0.10;;;17.70;99.90;;;;;;21140600;28;20414;-70
2023/01/09 12:01:05;;;;;;;0.20;0.10;;;18.20;99.90;;;;;;21122515;28;20443;-70
2023/01/09 12:11:28;;;;;;;0.20;0.10;;;18.40;99.90;;;;;;21156013;28;20407;-69
2023/01/09 12:21:44;;;;;;;0.20;0.10;;;18.70;99.90;;;;;;21148471;28;20397;-72
2023/01/09 12:32:12;;;;;;;0.20;0.10;;;19.10;99.90;;;;;;21050066;28;20404;-70
2023/01/09 12:42:44;;;;;;;0.20;0.10;;;18.80;99.90;;;;;;21034321;28;20438;-68
2023/01/09 12:52:53;;;;;;;0.20;0.10;;;18.70;99.90;;;;;;21103545;28;20402;-69
2023/01/09 13:03:05;;;;;;;0.20;0.00;;;18.80;99.90;;;;;;21134329;28;20448;-69
2023/01/09 13:13:20;;;;;;;0.20;0.10;;;19.00;99.90;;;;;;21134052;28;20481;-67
2023/01/09 13:23:33;;;;;;;0.20;0.10;;;18.70;99.90;;;;;;21131743;28;21139;-69
2023/01/09 13:33:42;;;;;;;0.20;0.10;;;18.70;99.90;;;;;;21045879;28;20392;-69
2023/01/09 13:43:56;;;;;;;0.20;0.00;;;18.40;99.90;;;;;;21064063;28;20490;-69
2023/01/09 13:54:00;;;;;;;0.20;0.10;;;18.60;99.90;;;;;;21130696;28;20393;-69
2023/01/09 14:04:51;;;;;;;0.20;0.10;;;18.70;99.90;;;;;;21111762;28;20503;-70
2023/01/09 14:15:00;;;;;;;0.20;0.10;;;19.20;99.90;;;;;;20925645;28;20406;-69
2023/01/09 14:25:09;;;;;;;0.20;0.10;;;19.80;99.90;;;;;;21112143;28;20407;-69
2023/01/09 14:35:34;;;;;;;0.20;0.10;;;19.80;99.90;;;;;;21043420;28;20913;-71
2023/01/09 14:45:39;;;;;;;0.20;0.10;;;19.60;99.90;;;;;;21075874;28;20402;-67
2023/01/09 15:06:18;;;;;;;0.20;0.10;;;17.70;99.90;;;;;;21144551;28;20892;-70
2023/01/09 15:26:52;;;;;;;0.20;0.10;;;17.60;99.90;;;;;;21111624;28;20495;-71
2023/01/09 15:36:57;;;;;;;0.20;0.10;;;17.70;99.90;;;;;;21075124;28;20393;-71
2023/01/09 15:47:03;;;;;;;0.20;0.10;;;17.70;99.90;;;;;;21053753;28;20411;-71
2023/01/09 15:57:32;;;;;;;0.20;0.10;;;16.90;99.90;;;;;;21097549;28;20394;-70
2023/01/09 16:07:36;;;;;;;0.20;0.10;;;16.60;99.90;;;;;;21154871;28;20414;-71
2023/01/09 16:18:05;;;;;;;0.20;0.10;;;15.90;99.90;;;;;;21137580;28;20459;-69
2023/01/09 16:28:16;;;;;;;0.20;0.10;;;15.50;99.90;;;;;;21092565;28;20412;-69
2023/01/09 16:38:24;;;;;;;0.20;0.10;;;15.30;99.90;;;;;;21051691;28;20393;-70
2023/01/09 16:48:28;;;;;;;0.20;0.10;;;15.10;99.90;;;;;;21050824;28;20416;-66
2023/01/09 16:58:36;;;;;;;0.20;0.10;;;14.90;99.90;;;;;;21045813;28;20442;-71
2023/01/09 17:08:40;;;;;;;0.20;0.10;;;14.90;99.90;;;;;;21030561;28;20512;-71
2023/01/09 17:18:46;;;;;;;0.20;0.10;;;14.80;99.90;;;;;;21101156;28;20788;-72
2023/01/09 17:28:51;;;;;;;0.20;0.10;;;14.70;99.90;;;;;;21148046;28;20417;-71
2023/01/09 17:38:56;;;;;;;0.20;0.10;;;14.50;99.90;;;;;;21066791;28;20432;-70
2023/01/09 17:49:00;;;;;;;0.20;0.10;;;14.40;99.90;;;;;;21044585;28;20396;-70
2023/01/09 17:59:06;;;;;;;0.20;0.10;;;14.30;99.90;;;;;;21110050;28;20394;-69
2023/01/09 18:09:15;;;;;;;0.20;0.10;;;14.20;99.90;;;;;;21127533;28;20757;-70
2023/01/09 18:19:21;;;;;;;0.20;0.10;;;14.20;99.90;;;;;;21127986;28;20765;-71
2023/01/09 18:29:25;;;;;;;0.20;0.10;;;14.00;99.90;;;;;;21127983;28;20429;-68
2023/01/09 18:39:34;;;;;;;0.20;0.10;;;13.90;99.90;;;;;;21144821;28;20756;-70
2023/01/09 18:49:38;;;;;;;0.20;0.10;;;13.70;99.90;;;;;;21145338;28;20812;-70
2023/01/09 18:59:43;;;;;;;0.20;0.00;;;13.60;99.90;;;;;;21144466;28;20403;-70
2023/01/09 19:09:48;;;;;;;0.20;0.10;;;13.50;99.90;;;;;;21125859;28;20510;-75
2023/01/09 19:19:53;;;;;;;0.20;0.10;;;13.40;99.90;;;;;;21144083;28;20480;-70
2023/01/09 19:40:19;;;;;;;0.20;0.10;;;13.00;99.90;;;;;;21125402;28;20383;-70
2023/01/09 20:00:46;;;;;;;0.20;0.10;;;12.80;99.90;;;;;;21131974;28;20402;-72
2023/01/09 20:11:09;;;;;;;0.20;0.10;;;12.70;99.90;;;;;;21139795;28;20889;-70
2023/01/09 20:21:20;;;;;;;0.20;0.10;;;12.40;99.90;;;;;;21139981;28;20490;-71
2023/01/09 20:31:27;;;;;;;0.20;0.10;;;12.30;99.90;;;;;;21138259;28;20742;-73
2023/01/09 20:41:32;;;;;;;0.20;0.03;;;12.10;99.90;;;;;;21155781;28;20403;-72
2023/01/09 20:51:40;;;;;;;0.20;0.10;;;12.20;99.90;;;;;;21156035;28;20468;-74
2023/01/09 21:01:46;;;;;;;0.20;0.10;;;12.20;99.90;;;;;;21135968;28;20885;-70
2023/01/09 21:11:49;;;;;;;0.20;0.10;;;12.20;99.90;;;;;;21154391;28;20954;-72
2023/01/09 21:21:55;;;;;;;0.20;0.10;;;12.20;99.90;;;;;;21135185;28;20426;-71
2023/01/09 21:31:59;;;;;;;0.20;0.10;;;12.20;99.90;;;;;;21153691;28;20542;-71
2023/01/09 21:52:25;;;;;;;0.20;0.10;;;11.70;99.90;;;;;;21135412;28;20475;-72
2023/01/09 22:02:31;;;;;;;0.20;0.10;;;11.70;99.90;;;;;;21100476;28;20396;-73
2023/01/09 22:12:35;;;;;;;0.20;0.10;;;11.20;99.90;;;;;;21048097;28;20511;-72
2023/01/09 22:22:40;;;;;;;0.20;0.10;;;11.00;99.90;;;;;;21063198;28;20420;-72
2023/01/09 22:32:45;;;;;;;0.20;0.10;;;10.40;99.90;;;;;;21064414;28;20420;-72
2023/01/09 22:42:54;;;;;;;0.20;0.10;;;10.70;99.90;;;;;;21058640;28;20394;-73
2023/01/09 22:52:57;;;;;;;0.20;0.10;;;10.90;99.90;;;;;;21147689;28;20832;-73
2023/01/09 23:03:07;;;;;;;0.20;0.10;;;11.00;99.90;;;;;;21139016;28;20402;-73
2023/01/09 23:13:11;;;;;;;0.20;0.10;;;10.70;99.90;;;;;;21146305;28;20428;-73
2023/01/09 23:23:16;;;;;;;0.20;0.03;;;10.60;99.90;;;;;;21145606;28;20447;-72
2023/01/09 23:33:20;;;;;;;0.20;0.10;;;10.70;99.90;;;;;;21147957;28;20434;-72
2023/01/09 23:43:45;;;;;;;0.20;0.10;;;10.50;99.90;;;;;;21090949;28;20383;-72
2023/01/09 23:53:48;;;;;;;0.20;0.10;;;10.70;99.90;;;;;;21152228;28;20414;-71
